Terminal Aerodrome Forecast
Issued by NWS Binghamton, NY

Home | Current Version | Previous Version | Text Only | Print | Product List | Glossary On
Versions: 1 2 3 4 5 6 7 8 9 10 11 12 13 14 15 16 17 18
000
FTUS41 KBGM 282000 AAA
TAFBGM
TAF AMD
KBGM 282025Z 2820/2918 33010G18KT P6SM SCT025 BKN050
      TEMPO 2820/2823 5SM -SHRA BR OVC015
     FM290000 31008KT P6SM -SHRA OVC040
     FM290600 31006KT P6SM SCT250=

USA.gov is the U.S. government's official web portal to all federal, state and local government web resources and services.